createdAt,value
2023-02-11T00:00:16.540Z,102623.56
2023-02-11T00:02:46.127Z,102624.78
2023-02-11T00:05:14.435Z,102628.69
2023-02-11T00:07:41.020Z,102621.59
2023-02-11T00:10:08.213Z,102632.53
2023-02-11T00:12:36.352Z,102653.13
2023-02-11T00:15:03.920Z,102647.09
2023-02-11T00:17:30.417Z,102640.47
2023-02-11T00:19:56.863Z,102637.22
2023-02-11T00:22:23.552Z,102639.75
2023-02-11T00:24:50.066Z,102646.28
2023-02-11T00:27:16.872Z,102637.69
2023-02-11T00:29:44.715Z,102636.50
2023-02-11T00:32:11.694Z,102623.47
2023-02-11T00:34:38.609Z,102615.59
2023-02-11T00:37:05.906Z,102626.56
2023-02-11T00:39:33.435Z,102637.06
2023-02-11T00:42:00.110Z,102643.50
2023-02-11T00:44:27.411Z,102647.03
2023-02-11T00:46:54.289Z,102645.16
2023-02-11T00:49:20.764Z,102647.66
2023-02-11T00:51:48.294Z,102650.28
2023-02-11T00:54:14.884Z,102664.00
2023-02-11T00:56:41.506Z,102661.97
2023-02-11T00:59:08.088Z,102662.34
2023-02-11T01:01:35.493Z,102664.28
2023-02-11T01:04:02.028Z,102658.34
2023-02-11T01:06:28.474Z,102652.50
2023-02-11T01:08:54.894Z,102661.50
2023-02-11T01:11:21.550Z,102654.00
2023-02-11T01:13:49.168Z,102654.19
2023-02-11T01:16:15.938Z,102650.91
2023-02-11T01:18:44.275Z,102653.59
2023-02-11T01:21:11.925Z,102644.06
2023-02-11T01:23:38.424Z,102631.88
2023-02-11T01:26:05.314Z,102640.66
2023-02-11T01:28:31.892Z,102635.63
2023-02-11T01:31:01.048Z,102629.59
2023-02-11T01:33:28.276Z,102625.69
2023-02-11T01:35:54.736Z,102620.47
2023-02-11T01:38:26.159Z,102610.94
2023-02-11T01:41:02.593Z,102607.66
2023-02-11T01:43:36.999Z,102599.38
2023-02-11T01:46:14.585Z,102587.22
2023-02-11T01:48:45.512Z,102583.41
2023-02-11T01:51:27.301Z,102579.13
2023-02-11T01:54:15.685Z,102555.63
2023-02-11T01:57:05.328Z,102560.91
2023-02-11T01:59:38.184Z,102554.09
2023-02-11T02:02:09.518Z,102555.16
2023-02-11T02:04:49.047Z,102544.94
2023-02-11T02:07:26.296Z,102545.19
2023-02-11T02:10:00.355Z,102540.56
2023-02-11T02:12:28.473Z,102537.31
2023-02-11T02:15:31.558Z,102536.28
2023-02-11T02:18:06.503Z,102530.06
2023-02-11T02:20:39.203Z,102534.03
2023-02-11T02:23:24.931Z,102536.34
2023-02-11T02:26:17.624Z,102546.69
2023-02-11T02:29:09.305Z,102548.78
2023-02-11T02:31:41.767Z,102555.47
2023-02-11T02:34:18.338Z,102542.63
2023-02-11T02:36:54.244Z,102538.22
2023-02-11T02:39:26.724Z,102539.75
2023-02-11T02:41:54.308Z,102520.88
2023-02-11T02:44:21.637Z,102510.75
2023-02-11T02:46:48.100Z,102499.31
2023-02-11T02:49:16.375Z,102513.25
2023-02-11T02:51:53.643Z,102525.31
2023-02-11T02:54:48.194Z,102524.09
2023-02-11T02:57:38.679Z,102528.84
2023-02-11T03:00:11.253Z,102525.44
2023-02-11T03:03:02.236Z,102527.53
2023-02-11T03:05:47.035Z,102521.44
2023-02-11T03:08:38.747Z,102508.22
2023-02-11T03:11:06.407Z,102506.50
2023-02-11T03:13:35.511Z,102501.38
2023-02-11T03:16:08.785Z,102496.16
2023-02-11T03:18:37.131Z,102499.50
2023-02-11T03:21:07.042Z,102496.16
2023-02-11T03:23:39.943Z,102491.84
2023-02-11T03:26:17.256Z,102492.47
2023-02-11T03:28:56.083Z,102488.47
2023-02-11T03:31:34.126Z,102488.91
2023-02-11T03:34:25.065Z,102475.47
2023-02-11T03:36:56.944Z,102475.22
2023-02-11T03:39:29.395Z,102478.19
2023-02-11T03:41:58.600Z,102494.75
2023-02-11T03:44:30.757Z,102490.44
2023-02-11T03:46:57.969Z,102487.03
2023-02-11T03:49:27.855Z,102487.50
2023-02-11T03:51:56.457Z,102498.03
2023-02-11T03:54:30.486Z,102488.22
2023-02-11T03:57:00.328Z,102490.16
2023-02-11T03:59:28.514Z,102488.09
2023-02-11T04:01:55.225Z,102486.59
2023-02-11T04:04:21.852Z,102494.69
2023-02-11T04:06:48.281Z,102491.34
2023-02-11T04:09:15.213Z,102491.78
2023-02-11T04:11:41.856Z,102496.56
2023-02-11T04:14:08.595Z,102500.69
2023-02-11T04:16:35.208Z,102499.56
2023-02-11T04:19:02.713Z,102506.06
2023-02-11T04:21:29.160Z,102499.63
2023-02-11T04:23:55.581Z,102487.41
2023-02-11T04:26:21.993Z,102490.34
2023-02-11T04:28:48.476Z,102488.47
2023-02-11T04:31:15.004Z,102482.25
2023-02-11T04:33:41.635Z,102495.41
2023-02-11T04:36:08.423Z,102482.44
2023-02-11T04:38:34.848Z,102493.38
2023-02-11T04:41:01.303Z,102495.34
2023-02-11T04:43:27.739Z,102496.13
2023-02-11T04:45:58.614Z,102484.56
2023-02-11T04:48:25.774Z,102496.59
2023-02-11T04:50:52.185Z,102488.91
2023-02-11T04:53:18.616Z,102498.69
2023-02-11T04:55:45.282Z,102497.00
2023-02-11T04:58:11.916Z,102496.81
2023-02-11T05:00:38.393Z,102488.72
2023-02-11T05:03:04.784Z,102484.44
2023-02-11T05:05:31.190Z,102485.44
2023-02-11T05:07:57.580Z,102475.72
2023-02-11T05:10:24.077Z,102469.84
2023-02-11T05:12:50.541Z,102471.91
2023-02-11T05:15:17.057Z,102483.19
2023-02-11T05:17:43.514Z,102484.38
2023-02-11T05:20:10.761Z,102485.44
2023-02-11T05:22:37.179Z,102496.47
2023-02-11T05:25:03.796Z,102499.16
2023-02-11T05:27:30.188Z,102500.84
2023-02-11T05:29:56.592Z,102496.84
2023-02-11T05:32:23.055Z,102498.53
2023-02-11T05:34:49.478Z,102492.34
2023-02-11T05:37:16.190Z,102489.19
2023-02-11T05:39:42.659Z,102490.69
2023-02-11T05:42:09.541Z,102489.31
2023-02-11T05:44:36.137Z,102489.88
2023-02-11T05:47:02.966Z,102484.25
2023-02-11T05:49:29.559Z,102490.94
2023-02-11T05:51:56.095Z,102480.69
2023-02-11T05:54:22.518Z,102478.91
2023-02-11T05:56:48.945Z,102465.75
2023-02-11T05:59:15.451Z,102460.03
2023-02-11T06:01:42.823Z,102471.72
2023-02-11T06:04:09.680Z,102467.53
2023-02-11T06:06:36.089Z,102471.25
2023-02-11T06:09:02.710Z,102474.81
2023-02-11T06:11:29.107Z,102464.50
2023-02-11T06:13:55.936Z,102478.81
2023-02-11T06:16:22.431Z,102479.06
2023-02-11T06:18:48.868Z,102481.84
2023-02-11T06:21:15.273Z,102489.44
2023-02-11T06:23:41.963Z,102496.31
2023-02-11T06:26:20.401Z,102503.69
2023-02-11T06:28:47.149Z,102492.63
2023-02-11T06:31:14.459Z,102489.94
2023-02-11T06:33:41.439Z,102498.03
2023-02-11T06:36:25.841Z,102508.63
2023-02-11T06:38:52.505Z,102498.63
2023-02-11T06:41:23.036Z,102499.84
2023-02-11T06:43:49.852Z,102504.31
2023-02-11T06:46:16.425Z,102505.34
2023-02-11T06:48:44.965Z,102504.09
2023-02-11T06:51:13.337Z,102491.75
2023-02-11T06:53:45.306Z,102501.97
2023-02-11T06:56:16.169Z,102500.13
2023-02-11T06:58:42.750Z,102505.78
2023-02-11T07:01:12.398Z,102501.56
2023-02-11T07:03:43.025Z,102503.28
2023-02-11T07:06:14.120Z,102503.41
2023-02-11T07:08:43.436Z,102524.22
2023-02-11T07:11:19.043Z,102507.22
2023-02-11T07:13:46.006Z,102514.00
2023-02-11T07:16:14.991Z,102515.75
2023-02-11T07:18:42.115Z,102515.53
2023-02-11T07:21:10.993Z,102517.63
2023-02-11T07:23:39.469Z,102514.97
2023-02-11T07:26:07.601Z,102517.81
2023-02-11T07:28:35.539Z,102511.13
2023-02-11T07:31:22.593Z,102514.97
2023-02-11T07:33:49.634Z,102518.47
2023-02-11T07:36:16.625Z,102520.22
2023-02-11T07:38:43.715Z,102517.84
2023-02-11T07:41:13.649Z,102526.34
2023-02-11T07:43:41.209Z,102522.81
2023-02-11T07:46:13.044Z,102519.25
2023-02-11T07:48:39.730Z,102527.16
2023-02-11T07:51:09.917Z,102543.19
2023-02-11T07:53:36.649Z,102533.69
2023-02-11T07:56:05.089Z,102540.06
2023-02-11T07:58:31.536Z,102531.59
2023-02-11T08:01:03.147Z,102518.69
2023-02-11T08:03:29.754Z,102526.44
2023-02-11T08:05:56.527Z,102529.13
2023-02-11T08:08:23.206Z,102524.94
2023-02-11T08:10:49.943Z,102531.19
2023-02-11T08:13:16.528Z,102519.16
2023-02-11T08:15:43.876Z,102524.56
2023-02-11T08:18:10.601Z,102524.13
2023-02-11T08:20:37.139Z,102527.84
2023-02-11T08:23:06.468Z,102539.34
2023-02-11T08:25:33.291Z,102548.88
2023-02-11T08:27:59.899Z,102539.09
2023-02-11T08:30:27.536Z,102541.56
2023-02-11T08:32:54.060Z,102543.25
2023-02-11T08:35:20.506Z,102537.47
2023-02-11T08:37:46.914Z,102543.28
2023-02-11T08:40:13.714Z,102555.38
2023-02-11T08:42:40.149Z,102550.00
2023-02-11T08:45:07.195Z,102547.72
2023-02-11T08:47:33.657Z,102541.22
2023-02-11T08:50:00.140Z,102543.34
2023-02-11T08:52:27.327Z,102542.94
2023-02-11T08:54:53.807Z,102550.41
2023-02-11T08:57:20.238Z,102552.72
2023-02-11T08:59:46.739Z,102560.00
2023-02-11T09:02:14.132Z,102562.34
2023-02-11T09:04:41.099Z,102567.28
2023-02-11T09:07:07.597Z,102575.81
2023-02-11T09:09:34.007Z,102572.91
2023-02-11T09:12:03.161Z,102578.06
2023-02-11T09:14:29.620Z,102592.63
2023-02-11T09:16:56.140Z,102591.41
2023-02-11T09:19:23.172Z,102588.13
2023-02-11T09:21:49.860Z,102588.66
2023-02-11T09:24:16.472Z,102595.13
2023-02-11T09:26:44.444Z,102588.28
2023-02-11T09:29:12.725Z,102579.16
2023-02-11T09:31:39.402Z,102581.88
2023-02-11T09:34:06.478Z,102595.13
2023-02-11T09:36:37.545Z,102593.31
2023-02-11T09:39:06.121Z,102595.16
2023-02-11T09:41:48.307Z,102597.28
2023-02-11T09:44:22.276Z,102596.47
2023-02-11T09:46:59.541Z,102606.81
2023-02-11T09:49:35.378Z,102605.97
2023-02-11T09:52:13.861Z,102613.63
2023-02-11T09:55:06.235Z,102613.63
2023-02-11T09:57:35.514Z,102607.41
2023-02-11T10:00:17.005Z,102623.84
2023-02-11T10:03:34.429Z,102619.50
2023-02-11T10:06:14.492Z,102616.81
2023-02-11T10:08:59.805Z,102629.84
2023-02-11T10:11:44.034Z,102642.41
2023-02-11T10:14:23.835Z,102644.72
2023-02-11T10:17:02.908Z,102639.09
2023-02-11T10:19:42.763Z,102636.81
2023-02-11T10:22:22.243Z,102632.81
2023-02-11T10:24:53.803Z,102641.97
2023-02-11T10:27:24.388Z,102630.34
2023-02-11T10:30:02.584Z,102645.53
2023-02-11T10:33:03.206Z,102646.13
2023-02-11T10:35:30.014Z,102659.31
2023-02-11T10:37:56.690Z,102658.66
2023-02-11T10:40:26.055Z,102660.50
2023-02-11T10:42:59.277Z,102653.25
2023-02-11T10:45:39.098Z,102650.84
2023-02-11T10:48:26.511Z,102643.53
2023-02-11T10:51:17.440Z,102654.13
2023-02-11T10:53:45.816Z,102654.13
2023-02-11T10:56:25.380Z,102662.03
2023-02-11T10:59:02.704Z,102656.44
2023-02-11T11:01:43.567Z,102655.19
2023-02-11T11:04:29.784Z,102656.66
2023-02-11T11:07:17.648Z,102648.59
2023-02-11T11:09:51.456Z,102653.34
2023-02-11T11:12:34.979Z,102657.28
2023-02-11T11:15:11.233Z,102669.75
2023-02-11T11:17:38.376Z,102659.00
2023-02-11T11:20:18.843Z,102661.31
2023-02-11T11:22:47.183Z,102659.63
2023-02-11T11:25:42.836Z,102666.28
2023-02-11T11:28:21.650Z,102670.22
2023-02-11T11:30:49.117Z,102677.13
2023-02-11T11:33:35.886Z,102676.94
2023-02-11T11:36:08.736Z,102683.56
2023-02-11T11:38:38.510Z,102682.31
2023-02-11T11:41:25.140Z,102682.56
2023-02-11T11:44:20.842Z,102674.25
2023-02-11T11:46:53.553Z,102669.50
2023-02-11T11:49:28.422Z,102658.28
2023-02-11T11:52:10.227Z,102663.09
2023-02-11T11:54:37.331Z,102672.50
2023-02-11T11:57:15.365Z,102672.69
2023-02-11T11:59:42.405Z,102684.56
2023-02-11T12:02:33.847Z,102680.84
2023-02-11T12:05:14.364Z,102686.03
2023-02-11T12:07:58.689Z,102673.13
2023-02-11T12:10:55.586Z,102668.78
2023-02-11T12:13:41.366Z,102662.75
2023-02-11T12:16:23.698Z,102661.94
2023-02-11T12:19:26.995Z,102667.34
2023-02-11T12:22:23.244Z,102665.66
2023-02-11T12:25:26.622Z,102661.31
2023-02-11T12:28:01.948Z,102660.25
2023-02-11T12:30:59.321Z,102658.41
2023-02-11T12:33:47.504Z,102660.91
2023-02-11T12:36:14.021Z,102668.63
2023-02-11T12:38:58.261Z,102678.19
2023-02-11T12:41:58.651Z,102671.31
2023-02-11T12:44:55.873Z,102672.38
2023-02-11T12:47:40.217Z,102670.09
2023-02-11T12:50:24.733Z,102665.72
2023-02-11T12:53:10.006Z,102666.53
2023-02-11T12:55:45.805Z,102654.06
2023-02-11T12:58:21.759Z,102657.41
2023-02-11T13:00:57.888Z,102658.66
2023-02-11T13:03:38.524Z,102656.38
2023-02-11T13:06:09.318Z,102660.72
2023-02-11T13:08:40.988Z,102658.22
2023-02-11T13:11:14.819Z,102656.19
2023-02-11T13:14:15.874Z,102655.34
2023-02-11T13:16:50.892Z,102653.28
2023-02-11T13:19:40.817Z,102655.13
2023-02-11T13:22:16.479Z,102657.00
2023-02-11T13:25:02.226Z,102659.91
2023-02-11T13:27:44.408Z,102659.53
2023-02-11T13:30:35.219Z,102666.38
2023-02-11T13:33:04.214Z,102662.66
2023-02-11T13:35:34.981Z,102667.66
2023-02-11T13:38:04.617Z,102665.38
2023-02-11T13:40:39.641Z,102673.06
2023-02-11T13:43:19.902Z,102669.72
2023-02-11T13:45:49.085Z,102677.63
2023-02-11T13:48:17.611Z,102671.16
2023-02-11T13:50:56.798Z,102673.03
2023-02-11T13:53:24.156Z,102671.78
2023-02-11T13:55:54.428Z,102671.56
2023-02-11T13:58:26.754Z,102687.19
2023-02-11T14:00:53.588Z,102683.66
2023-02-11T14:03:38.894Z,102689.28
2023-02-11T14:06:26.980Z,102682.59
2023-02-11T14:09:17.143Z,102675.56
2023-02-11T14:11:51.955Z,102671.16
2023-02-11T14:14:24.539Z,102680.09
2023-02-11T14:17:00.311Z,102672.63
2023-02-11T14:19:43.697Z,102680.75
2023-02-11T14:22:10.144Z,102675.34
2023-02-11T14:24:37.239Z,102688.00
2023-02-11T14:27:10.780Z,102696.34
2023-02-11T14:29:43.934Z,102691.59
2023-02-11T14:32:38.066Z,102700.47
2023-02-11T14:35:20.569Z,102701.13
2023-02-11T14:38:02.126Z,102697.41
2023-02-11T14:40:57.248Z,102697.41
2023-02-11T14:43:51.444Z,102696.97
2023-02-11T14:46:19.787Z,102703.44
2023-02-11T14:48:53.368Z,102691.56
2023-02-11T14:51:23.574Z,102696.97
2023-02-11T14:53:52.737Z,102703.00
2023-02-11T14:56:24.554Z,102701.75
2023-02-11T14:58:51.891Z,102708.00
2023-02-11T15:01:26.025Z,102708.22
2023-02-11T15:03:54.545Z,102710.13
2023-02-11T15:06:32.600Z,102704.47
2023-02-11T15:09:40.125Z,102707.16
2023-02-11T15:12:15.673Z,102716.78
2023-02-11T15:14:48.070Z,102715.75
2023-02-11T15:17:22.194Z,102708.47
2023-02-11T15:19:53.156Z,102718.84
2023-02-11T15:22:24.700Z,102733.66
2023-02-11T15:25:06.300Z,102744.66
2023-02-11T15:27:41.366Z,102748.84
2023-02-11T15:30:33.845Z,102751.56
2023-02-11T15:33:03.849Z,102751.56
2023-02-11T15:35:37.933Z,102752.78
2023-02-11T15:38:05.251Z,102753.66
2023-02-11T15:40:34.358Z,102750.50
2023-02-11T15:43:09.548Z,102753.22
2023-02-11T15:45:40.258Z,102752.16
2023-02-11T15:48:17.561Z,102754.06
2023-02-11T15:50:51.588Z,102763.63
2023-02-11T15:53:27.284Z,102754.09
2023-02-11T15:56:03.324Z,102758.84
2023-02-11T15:58:35.416Z,102740.97
2023-02-11T16:01:03.217Z,102736.97
2023-02-11T16:03:32.606Z,102735.31
2023-02-11T16:06:23.783Z,102748.84
2023-02-11T16:09:08.252Z,102745.75
2023-02-11T16:11:55.453Z,102748.88
2023-02-11T16:14:27.915Z,102753.88
2023-02-11T16:16:58.237Z,102759.50
2023-02-11T16:19:26.382Z,102759.69
2023-02-11T16:21:54.836Z,102755.91
2023-02-11T16:24:27.931Z,102759.91
2023-02-11T16:26:57.368Z,102758.84
2023-02-11T16:29:36.461Z,102757.19
2023-02-11T16:32:10.700Z,102776.34
2023-02-11T16:34:37.277Z,102790.69
2023-02-11T16:37:05.372Z,102784.28
2023-02-11T16:39:32.474Z,102774.03
2023-02-11T16:41:59.984Z,102775.50
2023-02-11T16:44:26.670Z,102756.59
2023-02-11T16:46:54.860Z,102760.09
2023-02-11T16:49:24.428Z,102761.38
2023-02-11T16:52:01.350Z,102762.41
2023-02-11T16:54:29.550Z,102765.34
2023-02-11T16:56:56.864Z,102774.69
2023-02-11T16:59:23.869Z,102778.84
2023-02-11T17:01:52.833Z,102778.47
2023-02-11T17:04:28.264Z,102781.41
2023-02-11T17:06:57.231Z,102778.88
2023-02-11T17:09:30.240Z,102782.22
2023-02-11T17:11:57.628Z,102785.75
2023-02-11T17:14:24.536Z,102780.13
2023-02-11T17:16:51.033Z,102783.03
2023-02-11T17:19:21.070Z,102780.34
2023-02-11T17:21:50.846Z,102782.81
2023-02-11T17:24:18.244Z,102794.50
2023-02-11T17:26:46.051Z,102792.00
2023-02-11T17:29:16.689Z,102794.53
2023-02-11T17:31:44.097Z,102799.94
2023-02-11T17:34:11.530Z,102810.34
2023-02-11T17:36:38.186Z,102818.03
2023-02-11T17:39:07.796Z,102813.28
2023-02-11T17:41:34.791Z,102812.22
2023-02-11T17:44:01.473Z,102819.13
2023-02-11T17:46:28.589Z,102829.28
2023-02-11T17:48:58.575Z,102824.28
2023-02-11T17:51:29.103Z,102819.91
2023-02-11T17:53:58.415Z,102834.06
2023-02-11T17:56:25.263Z,102832.84
2023-02-11T17:58:53.000Z,102828.44
2023-02-11T18:01:20.295Z,102842.56
2023-02-11T18:03:47.488Z,102838.66
2023-02-11T18:06:14.426Z,102837.81
2023-02-11T18:08:42.956Z,102840.97
2023-02-11T18:11:10.981Z,102846.81
2023-02-11T18:13:37.426Z,102838.06
2023-02-11T18:16:05.797Z,102852.22
2023-02-11T18:18:32.226Z,102858.66
2023-02-11T18:21:00.717Z,102859.09
2023-02-11T18:23:27.973Z,102872.00
2023-02-11T18:25:54.420Z,102880.97
2023-02-11T18:28:21.046Z,102878.47
2023-02-11T18:30:47.972Z,102880.31
2023-02-11T18:33:14.624Z,102887.22
2023-02-11T18:35:44.936Z,102883.03
2023-02-11T18:38:11.636Z,102891.34
2023-02-11T18:40:41.825Z,102895.31
2023-02-11T18:43:08.230Z,102896.16
2023-02-11T18:45:34.742Z,102893.09
2023-02-11T18:48:03.568Z,102894.09
2023-02-11T18:50:30.958Z,102902.19
2023-02-11T18:52:57.348Z,102900.56
2023-02-11T18:55:25.810Z,102894.75
2023-02-11T18:57:52.889Z,102894.34
2023-02-11T19:00:20.620Z,102893.06
2023-02-11T19:02:47.195Z,102889.09
2023-02-11T19:05:13.791Z,102896.16
2023-02-11T19:07:40.404Z,102899.06
2023-02-11T19:10:07.541Z,102904.25
2023-02-11T19:12:34.230Z,102897.22
2023-02-11T19:15:00.858Z,102897.41
2023-02-11T19:17:27.523Z,102886.63
2023-02-11T19:19:54.027Z,102893.63
2023-02-11T19:22:20.464Z,102889.28
2023-02-11T19:24:47.251Z,102891.59
2023-02-11T19:27:13.695Z,102895.13
2023-02-11T19:29:40.436Z,102893.88
2023-02-11T19:32:07.054Z,102897.81
2023-02-11T19:34:33.737Z,102893.03
2023-02-11T19:37:01.521Z,102900.09
2023-02-11T19:39:28.043Z,102903.63
2023-02-11T19:41:54.499Z,102902.41
2023-02-11T19:44:20.968Z,102904.84
2023-02-11T19:46:48.757Z,102910.94
2023-02-11T19:49:22.658Z,102906.72
2023-02-11T19:51:50.387Z,102906.75
2023-02-11T19:54:17.098Z,102914.50
2023-02-11T19:56:44.887Z,102909.06
2023-02-11T19:59:11.791Z,102929.47
2023-02-11T20:01:38.487Z,102930.09
2023-02-11T20:04:05.813Z,102935.69
2023-02-11T20:06:33.285Z,102938.63
2023-02-11T20:09:06.399Z,102938.00
2023-02-11T20:11:33.884Z,102934.91
2023-02-11T20:14:00.633Z,102948.44
2023-02-11T20:16:46.196Z,102944.06
2023-02-11T20:19:17.507Z,102939.00
2023-02-11T20:21:46.810Z,102932.81
2023-02-11T20:24:14.182Z,102932.63
2023-02-11T20:26:42.622Z,102928.84
2023-02-11T20:29:09.709Z,102942.56
2023-02-11T20:31:36.534Z,102945.31
2023-02-11T20:34:03.087Z,102943.25
2023-02-11T20:36:32.271Z,102941.16
2023-02-11T20:39:00.013Z,102940.72
2023-02-11T20:41:34.113Z,102938.25
2023-02-11T20:44:03.549Z,102938.84
2023-02-11T20:46:32.876Z,102944.84
2023-02-11T20:49:02.733Z,102951.53
2023-02-11T20:51:33.949Z,102965.09
2023-02-11T20:54:00.900Z,102959.00
2023-02-11T20:56:31.082Z,102960.88
2023-02-11T20:58:59.263Z,102956.94
2023-02-11T21:01:40.325Z,102964.84
2023-02-11T21:04:11.930Z,102972.97
2023-02-11T21:06:43.944Z,102967.94
2023-02-11T21:09:13.785Z,102968.50
2023-02-11T21:11:40.835Z,102969.53
2023-02-11T21:14:07.750Z,102977.03
2023-02-11T21:16:34.240Z,102974.75
2023-02-11T21:19:03.269Z,102974.50
2023-02-11T21:21:30.121Z,102978.03
2023-02-11T21:23:56.793Z,102986.19
2023-02-11T21:26:23.314Z,102995.81
2023-02-11T21:28:50.024Z,102996.59
2023-02-11T21:31:23.124Z,103000.84
2023-02-11T21:33:50.964Z,102999.53
2023-02-11T21:36:17.831Z,102998.47
2023-02-11T21:38:44.621Z,103011.22
2023-02-11T21:41:11.853Z,103006.63
2023-02-11T21:43:38.337Z,103009.31
2023-02-11T21:46:10.343Z,103009.72
2023-02-11T21:48:37.420Z,103016.88
2023-02-11T21:51:06.681Z,103012.06
2023-02-11T21:53:33.452Z,103011.25
2023-02-11T21:56:04.761Z,103016.88
2023-02-11T21:58:31.381Z,103021.19
2023-02-11T22:00:57.795Z,103024.41
2023-02-11T22:03:24.248Z,103026.66
2023-02-11T22:05:50.676Z,103038.38
2023-02-11T22:08:20.105Z,103040.81
2023-02-11T22:10:46.735Z,103034.38
2023-02-11T22:13:13.172Z,103046.22
2023-02-11T22:15:39.705Z,103051.25
2023-02-11T22:18:06.261Z,103055.16
2023-02-11T22:20:32.662Z,103057.53
2023-02-11T22:22:59.133Z,103060.66
2023-02-11T22:25:25.839Z,103056.28
2023-02-11T22:27:52.240Z,103057.72
2023-02-11T22:30:19.065Z,103055.44
2023-02-11T22:32:46.596Z,103057.88
2023-02-11T22:35:13.124Z,103052.25
2023-02-11T22:37:39.590Z,103058.69
2023-02-11T22:40:06.740Z,103064.53
2023-02-11T22:42:33.161Z,103057.38
2023-02-11T22:44:59.542Z,103067.91
2023-02-11T22:47:25.927Z,103064.97
2023-02-11T22:49:52.338Z,103066.88
2023-02-11T22:52:18.773Z,103063.91
2023-02-11T22:54:45.260Z,103069.91
2023-02-11T22:57:12.011Z,103075.94
2023-02-11T22:59:38.452Z,103073.44
2023-02-11T23:02:05.012Z,103081.41
2023-02-11T23:04:31.420Z,103072.56
2023-02-11T23:06:57.817Z,103076.00
2023-02-11T23:09:24.799Z,103081.59
2023-02-11T23:11:54.209Z,103077.41
2023-02-11T23:14:23.009Z,103087.34
2023-02-11T23:16:50.708Z,103087.59
2023-02-11T23:19:17.314Z,103087.19
2023-02-11T23:21:44.195Z,103089.72
2023-02-11T23:24:14.829Z,103101.25
2023-02-11T23:26:42.624Z,103114.53
2023-02-11T23:29:09.848Z,103112.59
2023-02-11T23:31:39.833Z,103103.38
2023-02-11T23:34:07.626Z,103105.03
2023-02-11T23:36:34.470Z,103114.31
2023-02-11T23:39:00.940Z,103114.06
2023-02-11T23:41:28.722Z,103116.72
2023-02-11T23:43:57.831Z,103114.47
2023-02-11T23:46:26.125Z,103130.41
2023-02-11T23:48:53.031Z,103120.06
2023-02-11T23:51:19.969Z,103118.38
2023-02-11T23:53:49.058Z,103114.22
2023-02-11T23:56:19.081Z,103111.56
2023-02-11T23:58:48.742Z,103108.22
